createdAt,value
2022-08-02T00:00:35.219Z,99333.31
2022-08-02T00:03:02.146Z,99329.03
2022-08-02T00:05:28.912Z,99319.69
2022-08-02T00:07:55.689Z,99328.91
2022-08-02T00:10:22.540Z,99330.28
2022-08-02T00:12:49.318Z,99330.28
2022-08-02T00:15:16.518Z,99323.94
2022-08-02T00:17:47.218Z,99326.88
2022-08-02T00:20:15.375Z,99325.44
2022-08-02T00:22:42.267Z,99332.63
2022-08-02T00:25:09.471Z,99333.16
2022-08-02T00:27:36.369Z,99327.56
2022-08-02T00:30:03.409Z,99338.34
2022-08-02T00:32:30.260Z,99326.31
2022-08-02T00:34:57.089Z,99325.31
2022-08-02T00:37:23.950Z,99325.66
2022-08-02T00:39:50.764Z,99329.50
2022-08-02T00:42:17.556Z,99311.94
2022-08-02T00:44:44.277Z,99329.63
2022-08-02T00:47:11.254Z,99336.50
2022-08-02T00:49:45.827Z,99333.66
2022-08-02T00:52:16.658Z,99336.22
2022-08-02T00:54:43.474Z,99339.09
2022-08-02T00:57:10.412Z,99314.16
2022-08-02T00:59:37.287Z,99319.69
2022-08-02T01:02:04.095Z,99324.59
2022-08-02T01:04:32.253Z,99329.09
2022-08-02T01:07:12.724Z,99329.78
2022-08-02T01:09:45.444Z,99325.06
2022-08-02T01:12:13.545Z,99320.69
2022-08-02T01:14:46.640Z,99322.47
2022-08-02T01:17:57.538Z,99324.66
2022-08-02T01:21:06.165Z,99327.00
2022-08-02T01:23:45.664Z,99333.31
2022-08-02T01:26:27.126Z,99331.75
2022-08-02T01:29:05.873Z,99324.06
2022-08-02T01:31:47.235Z,99329.28
2022-08-02T01:34:19.867Z,99327.81
2022-08-02T01:36:55.169Z,99323.59
2022-08-02T01:39:32.339Z,99321.34
2022-08-02T01:42:01.235Z,99311.38
2022-08-02T01:44:32.478Z,99315.97
2022-08-02T01:47:03.544Z,99326.66
2022-08-02T01:49:32.735Z,99332.41
2022-08-02T01:52:20.192Z,99329.13
2022-08-02T01:54:50.523Z,99331.91
2022-08-02T01:57:20.928Z,99331.81
2022-08-02T01:59:49.792Z,99324.47
2022-08-02T02:02:18.149Z,99325.88
2022-08-02T02:04:49.280Z,99327.78
2022-08-02T02:07:19.290Z,99322.59
2022-08-02T02:09:47.714Z,99326.75
2022-08-02T02:12:20.182Z,99336.03
2022-08-02T02:14:51.860Z,99325.50
2022-08-02T02:18:11.912Z,99342.28
2022-08-02T02:20:14.272Z,99273.81
2022-08-02T02:22:41.341Z,99342.16
2022-08-02T02:25:11.374Z,99334.16
2022-08-02T02:27:41.882Z,99335.75
2022-08-02T02:30:12.321Z,99340.53
2022-08-02T02:32:41.050Z,99338.13
2022-08-02T02:35:10.867Z,99327.63
2022-08-02T02:37:39.011Z,99333.63
2022-08-02T02:40:07.754Z,99328.06
2022-08-02T02:42:35.823Z,99333.13
2022-08-02T02:45:03.604Z,99340.03
2022-08-02T02:47:41.019Z,99343.63
2022-08-02T02:50:11.090Z,99337.84
2022-08-02T02:52:40.671Z,99340.75
2022-08-02T02:55:09.363Z,99341.78
2022-08-02T02:57:38.244Z,99346.13
2022-08-02T03:00:09.125Z,99336.34
2022-08-02T03:02:43.036Z,99335.78
2022-08-02T03:05:11.191Z,99350.88
2022-08-02T03:07:38.752Z,99348.31
2022-08-02T03:10:07.126Z,99351.31
2022-08-02T03:12:35.606Z,99346.97
2022-08-02T03:15:06.299Z,99351.75
2022-08-02T03:17:43.873Z,99345.84
2022-08-02T03:20:16.500Z,99361.50
2022-08-02T03:22:44.965Z,99363.34
2022-08-02T03:25:13.201Z,99363.41
2022-08-02T03:27:40.402Z,99372.09
2022-08-02T03:30:10.109Z,99371.56
2022-08-02T03:32:39.370Z,99357.69
2022-08-02T03:35:08.094Z,99378.69
2022-08-02T03:37:36.284Z,99383.88
2022-08-02T03:40:05.697Z,99382.03
2022-08-02T03:42:32.473Z,99391.25
2022-08-02T03:45:06.241Z,99380.75
2022-08-02T03:47:35.535Z,99402.59
2022-08-02T03:50:02.698Z,99403.38
2022-08-02T03:52:32.782Z,99409.44
2022-08-02T03:54:59.991Z,99397.31
2022-08-02T03:57:27.041Z,99403.00
2022-08-02T03:59:53.829Z,99407.06
2022-08-02T04:02:20.596Z,99411.69
2022-08-02T04:04:47.499Z,99405.16
2022-08-02T04:07:14.295Z,99400.25
2022-08-02T04:09:45.353Z,99414.94
2022-08-02T04:12:12.422Z,99407.66
2022-08-02T04:14:39.594Z,99402.88
2022-08-02T04:17:09.450Z,99414.56
2022-08-02T04:19:45.989Z,99420.75
2022-08-02T04:22:30.399Z,99419.91
2022-08-02T04:25:03.303Z,99418.53
2022-08-02T04:27:50.949Z,99413.28
2022-08-02T04:30:19.431Z,99413.63
2022-08-02T04:32:46.899Z,99409.13
2022-08-02T04:35:21.429Z,99418.25
2022-08-02T04:38:05.494Z,99418.47
2022-08-02T04:40:36.169Z,99420.34
2022-08-02T04:43:02.932Z,99421.47
2022-08-02T04:45:30.601Z,99424.69
2022-08-02T04:48:05.629Z,99418.06
2022-08-02T04:50:33.774Z,99425.78
2022-08-02T04:53:00.669Z,99426.75
2022-08-02T04:55:29.290Z,99416.41
2022-08-02T04:57:58.275Z,99439.94
2022-08-02T05:00:27.867Z,99428.94
2022-08-02T05:02:57.393Z,99432.34
2022-08-02T05:05:24.362Z,99418.56
2022-08-02T05:07:51.288Z,99414.44
2022-08-02T05:10:18.167Z,99430.38
2022-08-02T05:12:44.959Z,99430.91
2022-08-02T05:15:13.404Z,99426.81
2022-08-02T05:17:47.814Z,99432.41
2022-08-02T05:20:19.234Z,99427.94
2022-08-02T05:22:46.454Z,99436.59
2022-08-02T05:25:13.631Z,99436.25
2022-08-02T05:27:40.793Z,99444.53
2022-08-02T05:30:08.141Z,99444.44
2022-08-02T05:32:35.194Z,99447.88
2022-08-02T05:35:02.461Z,99449.25
2022-08-02T05:37:32.315Z,99452.88
2022-08-02T05:40:01.031Z,99453.94
2022-08-02T05:42:31.313Z,99455.09
2022-08-02T05:44:58.268Z,99459.59
2022-08-02T05:47:26.022Z,99453.34
2022-08-02T05:49:52.978Z,99465.56
2022-08-02T05:52:21.143Z,99465.44
2022-08-02T05:58:06.223Z,99466.22
2022-08-02T06:00:36.422Z,99450.53
2022-08-02T06:03:22.143Z,99468.97
2022-08-02T06:06:00.238Z,99467.69
2022-08-02T06:08:38.007Z,99474.50
2022-08-02T06:11:06.652Z,99476.22
2022-08-02T06:13:33.930Z,99481.19
2022-08-02T06:16:01.623Z,99466.97
2022-08-02T06:18:29.612Z,99480.00
2022-08-02T06:21:03.745Z,99481.44
2022-08-02T06:23:58.637Z,99471.84
2022-08-02T06:26:28.166Z,99484.56
2022-08-02T06:28:57.551Z,99487.28
2022-08-02T06:31:25.002Z,99496.66
2022-08-02T06:33:52.175Z,99477.88
2022-08-02T06:36:57.264Z,99488.34
2022-08-02T06:39:46.640Z,99489.53
2022-08-02T06:42:17.605Z,99492.66
2022-08-02T06:44:57.741Z,99488.84
2022-08-02T06:47:25.841Z,99486.78
2022-08-02T06:49:54.166Z,99483.72
2022-08-02T06:52:28.173Z,99495.03
2022-08-02T06:54:57.098Z,99476.75
2022-08-02T06:57:24.025Z,99493.25
2022-08-02T06:59:50.753Z,99483.59
2022-08-02T07:02:17.634Z,99480.03
2022-08-02T07:04:44.530Z,99485.31
2022-08-02T07:07:11.297Z,99475.69
2022-08-02T07:09:38.123Z,99483.06
2022-08-02T07:12:05.451Z,99478.09
2022-08-02T07:14:32.284Z,99470.72
2022-08-02T07:17:02.821Z,99478.75
2022-08-02T07:19:37.991Z,99470.19
2022-08-02T07:22:05.776Z,99477.44
2022-08-02T07:24:32.704Z,99456.22
2022-08-02T07:27:15.684Z,99459.22
2022-08-02T07:29:44.953Z,99471.00
2022-08-02T07:32:13.178Z,99472.84
2022-08-02T07:34:40.128Z,99476.03
2022-08-02T07:37:17.637Z,99469.28
2022-08-02T07:39:56.340Z,99460.72
2022-08-02T07:42:23.650Z,99458.53
2022-08-02T07:44:50.993Z,99457.78
2022-08-02T07:47:19.122Z,99470.63
2022-08-02T07:49:46.056Z,99468.56
2022-08-02T07:52:13.217Z,99467.69
2022-08-02T07:54:40.347Z,99463.53
2022-08-02T07:57:07.346Z,99467.69
2022-08-02T07:59:34.100Z,99475.06
2022-08-02T08:02:00.910Z,99468.22
2022-08-02T08:04:27.699Z,99458.66
2022-08-02T08:06:54.674Z,99469.09
2022-08-02T08:09:21.552Z,99457.28
2022-08-02T08:11:48.752Z,99466.59
2022-08-02T08:14:16.987Z,99461.41
2022-08-02T08:16:44.320Z,99469.44
2022-08-02T08:19:11.284Z,99457.84
2022-08-02T08:21:38.076Z,99460.22
2022-08-02T08:24:05.361Z,99456.13
2022-08-02T08:26:32.427Z,99452.34
2022-08-02T08:28:59.263Z,99455.44
2022-08-02T08:31:26.338Z,99450.50
2022-08-02T08:33:53.873Z,99458.19
2022-08-02T08:36:21.464Z,99456.94
2022-08-02T08:38:48.916Z,99448.50
2022-08-02T08:41:19.431Z,99449.47
2022-08-02T08:43:52.877Z,99452.59
2022-08-02T08:46:32.547Z,99442.16
2022-08-02T08:49:01.628Z,99447.44
2022-08-02T08:51:36.286Z,99458.44
2022-08-02T08:54:05.035Z,99450.13
2022-08-02T08:56:36.821Z,99445.47
2022-08-02T08:59:06.796Z,99444.56
2022-08-02T09:01:50.025Z,99435.78
2022-08-02T09:04:18.786Z,99434.38
2022-08-02T09:06:45.647Z,99437.06
2022-08-02T09:09:12.393Z,99433.97
2022-08-02T09:11:39.220Z,99435.75
2022-08-02T09:14:06.194Z,99432.59
2022-08-02T09:16:34.089Z,99428.19
2022-08-02T09:19:16.339Z,99433.31
2022-08-02T09:21:43.240Z,99440.22
2022-08-02T09:24:21.637Z,99429.78
2022-08-02T09:26:49.852Z,99424.56
2022-08-02T09:29:18.518Z,99419.50
2022-08-02T09:31:49.890Z,99416.78
2022-08-02T09:34:19.995Z,99406.38
2022-08-02T09:36:47.923Z,99418.25
2022-08-02T09:39:16.173Z,99418.50
2022-08-02T09:41:45.544Z,99406.22
2022-08-02T09:44:16.205Z,99409.38
2022-08-02T09:46:45.603Z,99417.78
2022-08-02T09:49:17.637Z,99410.25
2022-08-02T09:51:47.505Z,99405.44
2022-08-02T09:54:19.639Z,99406.56
2022-08-02T09:57:04.895Z,99411.38
2022-08-02T09:59:31.843Z,99414.03
2022-08-02T10:02:02.605Z,99417.25
2022-08-02T10:04:34.393Z,99408.31
2022-08-02T10:07:19.579Z,99403.66
2022-08-02T10:09:49.031Z,99386.63
2022-08-02T10:12:16.741Z,99402.97
2022-08-02T10:14:44.053Z,99404.50
2022-08-02T10:17:11.074Z,99402.56
2022-08-02T10:20:01.290Z,99405.91
2022-08-02T10:22:25.457Z,99400.88
2022-08-02T10:24:52.944Z,99405.78
2022-08-02T10:27:21.265Z,99411.88
2022-08-02T10:29:55.008Z,99401.16
2022-08-02T10:32:40.003Z,99366.00
2022-08-02T10:35:18.708Z,99401.16
2022-08-02T10:38:04.173Z,99403.00
2022-08-02T10:40:51.676Z,99405.78
2022-08-02T10:43:36.921Z,99400.47
2022-08-02T10:46:38.640Z,99402.41
2022-08-02T10:52:01.923Z,99396.81
2022-08-02T10:54:28.625Z,99387.69
2022-08-02T10:56:57.299Z,99385.09
2022-08-02T10:59:36.262Z,99393.38
2022-08-02T11:02:06.087Z,99390.69
2022-08-02T11:04:53.448Z,99386.03
2022-08-02T11:07:31.313Z,99384.59
2022-08-02T11:09:59.537Z,99384.47
2022-08-02T11:12:28.253Z,99371.00
2022-08-02T11:15:07.550Z,99383.56
2022-08-02T11:17:59.100Z,99369.38
2022-08-02T11:20:29.324Z,99380.59
2022-08-02T11:23:44.481Z,99384.19
2022-08-02T11:26:30.540Z,99373.56
2022-08-02T11:28:59.098Z,99379.63
2022-08-02T11:31:26.079Z,99376.50
2022-08-02T11:33:53.587Z,99377.50
2022-08-02T11:36:20.619Z,99378.16
2022-08-02T11:38:49.874Z,99375.09
2022-08-02T11:41:46.633Z,99377.53
2022-08-02T11:44:08.263Z,99369.53
2022-08-02T11:46:35.184Z,99375.59
2022-08-02T11:49:20.090Z,99366.72
2022-08-02T11:52:08.257Z,99378.50
2022-08-02T11:54:40.707Z,99361.81
2022-08-02T11:57:22.573Z,99373.22
2022-08-02T11:59:54.427Z,99366.03
2022-08-02T12:02:23.775Z,99366.22
2022-08-02T12:04:58.862Z,99365.47
2022-08-02T12:07:45.827Z,99359.38
2022-08-02T12:10:18.786Z,99363.44
2022-08-02T12:12:51.787Z,99366.53
2022-08-02T12:15:33.328Z,99357.69
2022-08-02T12:18:18.827Z,99354.38
2022-08-02T12:20:46.048Z,99362.44
2022-08-02T12:23:13.031Z,99366.28
2022-08-02T12:25:41.571Z,99354.97
2022-08-02T12:28:18.148Z,99358.97
2022-08-02T12:30:53.433Z,99350.72
2022-08-02T12:33:22.849Z,99364.50
2022-08-02T12:35:49.874Z,99361.59
2022-08-02T12:38:16.970Z,99345.03
2022-08-02T12:40:44.387Z,99337.50
2022-08-02T12:43:21.272Z,99356.09
2022-08-02T12:45:49.795Z,99354.53
2022-08-02T12:48:37.153Z,99352.50
2022-08-02T12:51:55.681Z,99348.16
2022-08-02T12:54:31.112Z,99344.41
2022-08-02T12:57:14.748Z,99347.31
2022-08-02T12:59:45.294Z,99350.84
2022-08-02T13:02:14.760Z,99350.00
2022-08-02T13:04:41.946Z,99355.00
2022-08-02T13:07:17.489Z,99359.84
2022-08-02T13:09:48.537Z,99343.31
2022-08-02T13:12:15.992Z,99346.44
2022-08-02T13:14:43.344Z,99346.34
2022-08-02T13:17:10.540Z,99350.69
2022-08-02T13:19:38.644Z,99346.72
2022-08-02T13:22:08.596Z,99347.38
2022-08-02T13:24:55.246Z,99344.53
2022-08-02T13:27:25.247Z,99350.75
2022-08-02T13:29:53.546Z,99357.66
2022-08-02T13:32:20.672Z,99346.69
2022-08-02T13:34:48.177Z,99349.47
2022-08-02T13:37:15.545Z,99338.91
2022-08-02T13:39:48.143Z,99357.69
2022-08-02T13:42:27.250Z,99352.22
2022-08-02T13:44:54.053Z,99352.13
2022-08-02T13:47:35.772Z,99351.56
2022-08-02T13:50:04.351Z,99354.16
2022-08-02T13:52:33.493Z,99350.72
2022-08-02T13:55:00.329Z,99345.97
2022-08-02T13:57:28.160Z,99354.25
2022-08-02T13:59:59.069Z,99349.44
2022-08-02T14:02:29.302Z,99322.59
2022-08-02T14:04:56.982Z,99346.75
2022-08-02T14:07:23.890Z,99341.28
2022-08-02T14:09:51.643Z,99353.34
2022-08-02T14:12:19.604Z,99355.34
2022-08-02T14:14:46.295Z,99357.72
2022-08-02T14:17:19.693Z,99357.03
2022-08-02T14:19:46.743Z,99357.97
2022-08-02T14:22:13.492Z,99353.28
2022-08-02T14:24:41.812Z,99359.94
2022-08-02T14:27:08.818Z,99346.69
2022-08-02T14:29:35.708Z,99337.59
2022-08-02T14:32:34.929Z,99364.34
2022-08-02T14:35:01.944Z,99359.19
2022-08-02T14:37:28.701Z,99344.34
2022-08-02T14:40:00.403Z,99353.97
2022-08-02T14:42:27.995Z,99354.75
2022-08-02T14:44:54.759Z,99359.13
2022-08-02T14:47:21.655Z,99350.53
2022-08-02T14:49:50.431Z,99368.00
2022-08-02T14:52:18.465Z,99352.38
2022-08-02T14:54:47.377Z,99337.28
2022-08-02T14:57:14.306Z,99355.22
2022-08-02T14:59:42.558Z,99356.25
2022-08-02T15:02:13.490Z,99337.28
2022-08-02T15:04:43.172Z,99351.78
2022-08-02T15:07:11.185Z,99344.88
2022-08-02T15:09:39.525Z,99338.28
2022-08-02T15:12:07.875Z,99345.28
2022-08-02T15:14:34.677Z,99337.16
2022-08-02T15:17:01.491Z,99343.91
2022-08-02T15:19:56.997Z,99347.13
2022-08-02T15:22:19.483Z,99350.75
2022-08-02T15:24:47.163Z,99349.97
2022-08-02T15:27:14.970Z,99350.72
2022-08-02T15:29:43.518Z,99360.38
2022-08-02T15:32:11.027Z,99353.41
2022-08-02T15:34:38.204Z,99352.94
2022-08-02T15:37:05.420Z,99356.91
2022-08-02T15:39:32.252Z,99367.63
2022-08-02T15:41:59.054Z,99366.00
2022-08-02T15:44:25.893Z,99364.19
2022-08-02T15:46:54.459Z,99377.03
2022-08-02T15:49:24.173Z,99362.16
2022-08-02T15:51:52.460Z,99369.75
2022-08-02T15:54:19.481Z,99368.72
2022-08-02T15:56:46.317Z,99374.59
2022-08-02T15:59:13.314Z,99365.31
2022-08-02T16:01:43.570Z,99368.78
2022-08-02T16:04:14.732Z,99379.78
2022-08-02T16:06:41.775Z,99382.47
2022-08-02T16:09:09.108Z,99386.38
2022-08-02T16:11:35.994Z,99380.06
2022-08-02T16:14:02.752Z,99393.38
2022-08-02T16:16:31.892Z,99401.28
2022-08-02T16:18:59.430Z,99392.44
2022-08-02T16:21:47.686Z,99401.00
2022-08-02T16:24:14.459Z,99400.34
2022-08-02T16:26:41.273Z,99403.41
2022-08-02T16:29:08.469Z,99407.50
2022-08-02T16:31:40.012Z,99400.47
2022-08-02T16:34:09.106Z,99415.59
2022-08-02T16:36:36.223Z,99415.13
2022-08-02T16:39:03.714Z,99413.09
2022-08-02T16:41:50.463Z,99419.53
2022-08-02T16:44:17.488Z,99423.72
2022-08-02T16:46:45.014Z,99425.97
2022-08-02T16:50:04.865Z,99421.13
2022-08-02T16:51:59.262Z,99435.19
2022-08-02T16:54:26.512Z,99427.78
2022-08-02T16:56:53.463Z,99428.44
2022-08-02T16:59:20.288Z,99434.69
2022-08-02T17:02:03.988Z,99424.22
2022-08-02T17:04:38.886Z,99433.81
2022-08-02T17:08:06.036Z,99431.06
2022-08-02T17:10:03.510Z,99437.22
2022-08-02T17:12:34.546Z,99442.03
2022-08-02T17:15:46.893Z,99443.81
2022-08-02T17:17:48.950Z,99441.53
2022-08-02T17:20:16.101Z,99446.22
2022-08-02T17:22:44.177Z,99451.09
2022-08-02T17:25:13.602Z,99451.09
2022-08-02T17:27:44.640Z,99452.38
2022-08-02T17:30:13.060Z,99464.13
2022-08-02T17:32:45.337Z,99449.50
2022-08-02T17:35:15.589Z,99466.53
2022-08-02T17:37:43.370Z,99461.56
2022-08-02T17:40:21.788Z,99454.19
2022-08-02T17:42:50.692Z,99464.78
2022-08-02T17:45:25.765Z,99466.84
2022-08-02T17:48:04.035Z,99467.66
2022-08-02T17:50:33.614Z,99477.13
2022-08-02T17:53:01.025Z,99469.06
2022-08-02T17:55:30.977Z,99470.66
2022-08-02T17:57:59.343Z,99465.19
2022-08-02T18:00:37.101Z,99461.16
2022-08-02T18:03:07.924Z,99476.59
2022-08-02T18:05:40.165Z,99477.69
2022-08-02T18:08:09.410Z,99484.91
2022-08-02T18:10:36.987Z,99469.94
2022-08-02T18:13:05.456Z,99486.09
2022-08-02T18:15:33.264Z,99477.22
2022-08-02T18:18:00.523Z,99493.50
2022-08-02T18:20:27.257Z,99499.34
2022-08-02T18:22:58.603Z,99500.03
2022-08-02T18:25:36.802Z,99505.75
2022-08-02T18:28:10.960Z,99513.09
2022-08-02T18:30:37.816Z,99515.16
2022-08-02T18:33:58.681Z,99512.44
2022-08-02T18:35:55.177Z,99518.59
2022-08-02T18:38:40.518Z,99526.72
2022-08-02T18:41:12.958Z,99520.78
2022-08-02T18:43:43.624Z,99527.19
2022-08-02T18:46:15.680Z,99531.03
2022-08-02T18:48:46.480Z,99535.09
2022-08-02T18:51:36.500Z,99538.84
2022-08-02T18:54:04.057Z,99544.53
2022-08-02T18:56:32.699Z,99539.31
2022-08-02T18:58:59.645Z,99551.44
2022-08-02T19:01:33.741Z,99547.84
2022-08-02T19:04:04.434Z,99550.59
2022-08-02T19:06:32.384Z,99545.97
2022-08-02T19:09:12.826Z,99553.22
2022-08-02T19:11:47.463Z,99555.63
2022-08-02T19:14:24.233Z,99561.47
2022-08-02T19:16:56.426Z,99567.56
2022-08-02T19:19:23.422Z,99569.72
2022-08-02T19:22:18.162Z,99565.69
2022-08-02T19:24:44.338Z,99564.28
2022-08-02T19:27:14.757Z,99557.13
2022-08-02T19:29:50.892Z,99565.66
2022-08-02T19:32:40.710Z,99564.56
2022-08-02T19:35:19.968Z,99543.91
2022-08-02T19:37:55.842Z,99556.91
2022-08-02T19:40:24.430Z,99569.72
2022-08-02T19:44:23.243Z,99567.88
2022-08-02T19:45:48.477Z,99566.69
2022-08-02T19:48:24.048Z,99565.78
2022-08-02T19:50:56.156Z,99558.91
2022-08-02T19:53:29.019Z,99561.84
2022-08-02T19:56:00.188Z,99557.91
2022-08-02T19:58:28.590Z,99553.72
2022-08-02T20:00:55.357Z,99558.69
2022-08-02T20:03:50.938Z,99558.34
2022-08-02T20:06:10.175Z,99560.13
2022-08-02T20:08:39.679Z,99543.31
2022-08-02T20:11:15.030Z,99565.91
2022-08-02T20:13:47.506Z,99556.13
2022-08-02T20:16:20.728Z,99558.44
2022-08-02T20:18:54.299Z,99564.91
2022-08-02T20:21:35.418Z,99565.69
2022-08-02T20:24:04.863Z,99559.63
2022-08-02T20:26:31.810Z,99539.69
2022-08-02T20:29:02.416Z,99559.03
2022-08-02T20:34:26.803Z,99551.34
2022-08-02T20:36:54.109Z,99564.41
2022-08-02T20:39:21.465Z,99556.44
2022-08-02T20:41:53.074Z,99560.06
2022-08-02T20:44:31.071Z,99554.84
2022-08-02T20:46:59.422Z,99547.59
2022-08-02T20:49:41.798Z,99554.53
2022-08-02T20:52:23.142Z,99558.88
2022-08-02T20:54:51.853Z,99565.59
2022-08-02T20:57:18.815Z,99558.91
2022-08-02T20:59:52.028Z,99557.72
2022-08-02T21:02:20.118Z,99564.34
2022-08-02T21:04:47.182Z,99563.84
2022-08-02T21:07:17.972Z,99562.22
2022-08-02T21:09:52.767Z,99563.19
2022-08-02T21:12:22.023Z,99548.06
2022-08-02T21:14:57.111Z,99566.16
2022-08-02T21:17:26.863Z,99568.41
2022-08-02T21:20:04.446Z,99567.44
2022-08-02T21:22:31.286Z,99563.31
2022-08-02T21:24:58.773Z,99566.56
2022-08-02T21:27:52.896Z,99553.09
2022-08-02T21:30:14.231Z,99568.63
2022-08-02T21:32:41.619Z,99572.19
2022-08-02T21:35:11.649Z,99577.84
2022-08-02T21:37:44.798Z,99576.81
2022-08-02T21:40:12.922Z,99578.34
2022-08-02T21:42:40.043Z,99572.13
2022-08-02T21:45:17.019Z,99584.75
2022-08-02T21:47:46.778Z,99584.88
2022-08-02T21:50:16.463Z,99576.00
2022-08-02T21:52:52.271Z,99572.06
2022-08-02T21:55:24.190Z,99583.13
2022-08-02T21:58:06.543Z,99579.25
2022-08-02T22:00:34.503Z,99582.84
2022-08-02T22:03:22.562Z,99581.50
2022-08-02T22:05:48.175Z,99589.47
2022-08-02T22:08:14.930Z,99585.78
2022-08-02T22:11:01.666Z,99576.53
2022-08-02T22:13:38.707Z,99597.75
2022-08-02T22:16:14.218Z,99595.69
2022-08-02T22:18:41.211Z,99553.34
2022-08-02T22:21:17.386Z,99597.31
2022-08-02T22:23:50.435Z,99601.69
2022-08-02T22:26:18.896Z,99608.50
2022-08-02T22:28:52.128Z,99603.31
2022-08-02T22:31:24.875Z,99601.78
2022-08-02T22:34:26.871Z,99588.28
2022-08-02T22:36:55.494Z,99604.19
2022-08-02T22:39:22.239Z,99600.94
2022-08-02T22:42:06.565Z,99601.56
2022-08-02T22:44:34.987Z,99602.66
2022-08-02T22:47:06.810Z,99604.75
2022-08-02T22:49:38.811Z,99577.22
2022-08-02T22:52:12.513Z,99611.88
2022-08-02T22:54:41.054Z,99596.25
2022-08-02T22:57:11.312Z,99600.06
2022-08-02T22:59:39.920Z,99603.31
2022-08-02T23:02:08.308Z,99607.16
2022-08-02T23:04:35.081Z,99582.00
2022-08-02T23:07:01.950Z,99606.75
2022-08-02T23:09:29.165Z,99591.41
2022-08-02T23:11:55.866Z,99609.16
2022-08-02T23:14:22.980Z,99616.72
2022-08-02T23:17:08.925Z,99611.31
2022-08-02T23:19:51.039Z,99611.59
2022-08-02T23:22:29.127Z,99612.94
2022-08-02T23:24:57.690Z,99600.03
2022-08-02T23:27:25.145Z,99610.00
2022-08-02T23:29:51.860Z,99607.38
2022-08-02T23:32:18.917Z,99607.38
2022-08-02T23:34:50.275Z,99601.09
2022-08-02T23:37:17.056Z,99598.44
2022-08-02T23:39:43.951Z,99594.44
2022-08-02T23:42:10.726Z,99596.34
2022-08-02T23:44:37.440Z,99591.81
2022-08-02T23:47:04.307Z,99597.03
2022-08-02T23:49:31.328Z,99602.16
2022-08-02T23:52:01.411Z,99596.16
2022-08-02T23:54:28.986Z,99601.59
2022-08-02T23:56:55.891Z,99599.69
2022-08-02T23:59:22.782Z,99599.22
